sensor_id;sensor_type;location;lat;lon;timestamp;pressure;altitude;pressure_sealevel;temperature;humidity
75555;BME280;66087;53.126;17.960;2023-08-30T00:01:12;99732.33;;;16.86;91.22
75555;BME280;66087;53.126;17.960;2023-08-30T00:03:38;99725.90;;;16.84;91.18
75555;BME280;66087;53.126;17.960;2023-08-30T00:06:06;99723.35;;;16.84;91.31
75555;BME280;66087;53.126;17.960;2023-08-30T00:08:33;99720.73;;;16.82;91.18
75555;BME280;66087;53.126;17.960;2023-08-30T00:11:00;99712.68;;;16.82;91.29
75555;BME280;66087;53.126;17.960;2023-08-30T00:13:30;99707.71;;;16.80;91.35
75555;BME280;66087;53.126;17.960;2023-08-30T00:15:59;99708.46;;;16.80;91.43
75555;BME280;66087;53.126;17.960;2023-08-30T00:18:26;99712.56;;;16.83;91.57
75555;BME280;66087;53.126;17.960;2023-08-30T00:20:53;99709.97;;;16.83;91.33
75555;BME280;66087;53.126;17.960;2023-08-30T00:23:20;99717.10;;;16.83;91.36
75555;BME280;66087;53.126;17.960;2023-08-30T00:25:46;99714.55;;;16.84;91.27
75555;BME280;66087;53.126;17.960;2023-08-30T00:28:13;99714.20;;;16.86;91.44
75555;BME280;66087;53.126;17.960;2023-08-30T00:30:39;99712.73;;;16.87;91.30
75555;BME280;66087;53.126;17.960;2023-08-30T00:33:07;99713.06;;;16.87;91.33
75555;BME280;66087;53.126;17.960;2023-08-30T00:35:34;99706.55;;;16.85;91.23
75555;BME280;66087;53.126;17.960;2023-08-30T00:38:01;99703.29;;;16.85;91.32
75555;BME280;66087;53.126;17.960;2023-08-30T00:40:28;99701.52;;;16.85;91.35
75555;BME280;66087;53.126;17.960;2023-08-30T00:42:56;99709.72;;;16.86;91.59
75555;BME280;66087;53.126;17.960;2023-08-30T00:45:23;99713.52;;;16.87;91.42
75555;BME280;66087;53.126;17.960;2023-08-30T00:47:51;99716.71;;;16.88;91.37
75555;BME280;66087;53.126;17.960;2023-08-30T00:50:18;99716.92;;;16.88;91.33
75555;BME280;66087;53.126;17.960;2023-08-30T00:52:44;99721.36;;;16.88;91.18
75555;BME280;66087;53.126;17.960;2023-08-30T00:55:12;99718.98;;;16.89;91.31
75555;BME280;66087;53.126;17.960;2023-08-30T00:57:39;99719.39;;;16.89;91.28
75555;BME280;66087;53.126;17.960;2023-08-30T01:00:07;99716.30;;;16.90;91.25
75555;BME280;66087;53.126;17.960;2023-08-30T01:02:36;99705.69;;;16.90;91.40
75555;BME280;66087;53.126;17.960;2023-08-30T01:05:03;99707.65;;;16.92;91.26
75555;BME280;66087;53.126;17.960;2023-08-30T01:07:30;99705.56;;;16.92;91.13
75555;BME280;66087;53.126;17.960;2023-08-30T01:09:58;99709.48;;;16.94;91.26
75555;BME280;66087;53.126;17.960;2023-08-30T01:12:35;99711.10;;;16.94;91.27
75555;BME280;66087;53.126;17.960;2023-08-30T01:15:11;99709.70;;;16.97;91.17
75555;BME280;66087;53.126;17.960;2023-08-30T01:17:41;99710.05;;;16.98;91.29
75555;BME280;66087;53.126;17.960;2023-08-30T01:20:11;99708.90;;;16.97;91.15
75555;BME280;66087;53.126;17.960;2023-08-30T01:22:53;99700.17;;;16.95;91.34
75555;BME280;66087;53.126;17.960;2023-08-30T01:25:38;99702.95;;;16.91;91.25
75555;BME280;66087;53.126;17.960;2023-08-30T01:28:10;99699.80;;;16.88;91.64
75555;BME280;66087;53.126;17.960;2023-08-30T01:30:40;99700.77;;;16.87;91.47
75555;BME280;66087;53.126;17.960;2023-08-30T01:33:09;99697.58;;;16.86;91.57
75555;BME280;66087;53.126;17.960;2023-08-30T01:35:36;99699.53;;;16.86;91.43
75555;BME280;66087;53.126;17.960;2023-08-30T01:38:07;99699.67;;;16.86;91.42
75555;BME280;66087;53.126;17.960;2023-08-30T01:40:37;99706.58;;;16.87;91.46
75555;BME280;66087;53.126;17.960;2023-08-30T01:43:06;99704.90;;;16.85;91.42
75555;BME280;66087;53.126;17.960;2023-08-30T01:45:40;99704.36;;;16.85;91.39
75555;BME280;66087;53.126;17.960;2023-08-30T01:48:14;99706.04;;;16.84;91.47
75555;BME280;66087;53.126;17.960;2023-08-30T01:50:43;99702.02;;;16.83;91.41
75555;BME280;66087;53.126;17.960;2023-08-30T01:53:12;99705.15;;;16.82;91.46
75555;BME280;66087;53.126;17.960;2023-08-30T01:55:40;99698.85;;;16.79;91.64
75555;BME280;66087;53.126;17.960;2023-08-30T01:58:08;99702.62;;;16.78;91.69
75555;BME280;66087;53.126;17.960;2023-08-30T02:00:35;99709.65;;;16.77;91.73
75555;BME280;66087;53.126;17.960;2023-08-30T02:03:13;99708.46;;;16.75;91.69
75555;BME280;66087;53.126;17.960;2023-08-30T02:05:56;99717.91;;;16.72;92.13
75555;BME280;66087;53.126;17.960;2023-08-30T02:08:29;99719.97;;;16.71;92.09
75555;BME280;66087;53.126;17.960;2023-08-30T02:11:02;99713.71;;;16.70;92.07
75555;BME280;66087;53.126;17.960;2023-08-30T02:13:30;99717.05;;;16.72;92.06
75555;BME280;66087;53.126;17.960;2023-08-30T02:16:02;99716.39;;;16.74;92.03
75555;BME280;66087;53.126;17.960;2023-08-30T02:18:29;99713.80;;;16.74;91.93
75555;BME280;66087;53.126;17.960;2023-08-30T02:20:57;99715.30;;;16.74;92.22
75555;BME280;66087;53.126;17.960;2023-08-30T02:23:28;99719.93;;;16.74;92.11
75555;BME280;66087;53.126;17.960;2023-08-30T02:25:57;99718.16;;;16.70;92.05
75555;BME280;66087;53.126;17.960;2023-08-30T02:28:24;99724.59;;;16.75;92.14
75555;BME280;66087;53.126;17.960;2023-08-30T02:30:53;99716.52;;;16.76;92.16
75555;BME280;66087;53.126;17.960;2023-08-30T02:33:21;99717.63;;;16.76;92.06
75555;BME280;66087;53.126;17.960;2023-08-30T02:35:47;99713.28;;;16.76;92.05
75555;BME280;66087;53.126;17.960;2023-08-30T02:38:15;99716.42;;;16.75;92.06
75555;BME280;66087;53.126;17.960;2023-08-30T02:40:42;99713.23;;;16.73;91.96
75555;BME280;66087;53.126;17.960;2023-08-30T02:43:08;99705.56;;;16.71;91.99
75555;BME280;66087;53.126;17.960;2023-08-30T02:45:35;99701.81;;;16.71;92.21
75555;BME280;66087;53.126;17.960;2023-08-30T02:48:02;99694.87;;;16.67;92.18
75555;BME280;66087;53.126;17.960;2023-08-30T02:50:29;99691.60;;;16.67;92.28
75555;BME280;66087;53.126;17.960;2023-08-30T02:52:56;99698.21;;;16.65;92.18
75555;BME280;66087;53.126;17.960;2023-08-30T02:55:22;99696.64;;;16.64;92.44
75555;BME280;66087;53.126;17.960;2023-08-30T02:57:49;99691.95;;;16.60;92.72
75555;BME280;66087;53.126;17.960;2023-08-30T03:00:28;99688.77;;;16.60;92.67
75555;BME280;66087;53.126;17.960;2023-08-30T03:02:55;99686.77;;;16.58;92.78
75555;BME280;66087;53.126;17.960;2023-08-30T03:05:22;99680.73;;;16.58;92.58
75555;BME280;66087;53.126;17.960;2023-08-30T03:07:50;99675.58;;;16.57;92.47
75555;BME280;66087;53.126;17.960;2023-08-30T03:10:19;99673.31;;;16.57;92.42
75555;BME280;66087;53.126;17.960;2023-08-30T03:12:46;99672.38;;;16.57;92.17
75555;BME280;66087;53.126;17.960;2023-08-30T03:15:12;99666.99;;;16.58;92.04
75555;BME280;66087;53.126;17.960;2023-08-30T03:17:40;99661.24;;;16.57;92.18
75555;BME280;66087;53.126;17.960;2023-08-30T03:20:07;99665.78;;;16.57;92.04
75555;BME280;66087;53.126;17.960;2023-08-30T03:22:33;99668.95;;;16.56;92.18
75555;BME280;66087;53.126;17.960;2023-08-30T03:25:01;99667.65;;;16.54;92.09
75555;BME280;66087;53.126;17.960;2023-08-30T03:27:30;99670.94;;;16.54;91.97
75555;BME280;66087;53.126;17.960;2023-08-30T03:29:57;99674.20;;;16.52;92.02
75555;BME280;66087;53.126;17.960;2023-08-30T03:32:24;99681.64;;;16.50;92.07
75555;BME280;66087;53.126;17.960;2023-08-30T03:34:50;99687.61;;;16.46;92.16
75555;BME280;66087;53.126;17.960;2023-08-30T03:37:18;99688.62;;;16.41;92.21
75555;BME280;66087;53.126;17.960;2023-08-30T03:39:44;99680.60;;;16.37;92.35
75555;BME280;66087;53.126;17.960;2023-08-30T03:42:11;99683.36;;;16.35;92.38
75555;BME280;66087;53.126;17.960;2023-08-30T03:44:38;99683.61;;;16.35;92.34
75555;BME280;66087;53.126;17.960;2023-08-30T03:47:07;99688.30;;;16.34;92.36
75555;BME280;66087;53.126;17.960;2023-08-30T03:49:34;99685.13;;;16.33;92.39
75555;BME280;66087;53.126;17.960;2023-08-30T03:52:02;99689.98;;;16.33;92.32
75555;BME280;66087;53.126;17.960;2023-08-30T03:54:29;99683.59;;;16.34;92.23
75555;BME280;66087;53.126;17.960;2023-08-30T03:56:55;99684.77;;;16.32;92.14
75555;BME280;66087;53.126;17.960;2023-08-30T03:59:23;99676.95;;;16.30;92.09
75555;BME280;66087;53.126;17.960;2023-08-30T04:01:54;99672.03;;;16.28;92.09
75555;BME280;66087;53.126;17.960;2023-08-30T04:04:21;99673.55;;;16.25;92.21
75555;BME280;66087;53.126;17.960;2023-08-30T04:06:48;99670.48;;;16.21;92.17
75555;BME280;66087;53.126;17.960;2023-08-30T04:09:16;99673.27;;;16.21;92.22
75555;BME280;66087;53.126;17.960;2023-08-30T04:11:44;99676.88;;;16.24;92.27
75555;BME280;66087;53.126;17.960;2023-08-30T04:14:15;99682.80;;;16.26;92.05
75555;BME280;66087;53.126;17.960;2023-08-30T04:16:42;99689.05;;;16.27;92.09
75555;BME280;66087;53.126;17.960;2023-08-30T04:19:10;99696.18;;;16.27;91.92
75555;BME280;66087;53.126;17.960;2023-08-30T04:21:37;99690.61;;;16.22;92.15
75555;BME280;66087;53.126;17.960;2023-08-30T04:24:04;99686.45;;;16.19;92.15
75555;BME280;66087;53.126;17.960;2023-08-30T04:26:32;99687.21;;;16.20;92.21
75555;BME280;66087;53.126;17.960;2023-08-30T04:28:59;99686.71;;;16.22;92.18
75555;BME280;66087;53.126;17.960;2023-08-30T04:31:26;99681.69;;;16.22;92.07
75555;BME280;66087;53.126;17.960;2023-08-30T04:33:53;99683.89;;;16.22;92.37
75555;BME280;66087;53.126;17.960;2023-08-30T04:36:21;99684.66;;;16.24;92.25
75555;BME280;66087;53.126;17.960;2023-08-30T04:38:49;99681.44;;;16.22;92.33
75555;BME280;66087;53.126;17.960;2023-08-30T04:41:17;99673.86;;;16.20;92.46
75555;BME280;66087;53.126;17.960;2023-08-30T04:43:44;99679.71;;;16.21;92.49
75555;BME280;66087;53.126;17.960;2023-08-30T04:46:11;99689.40;;;16.19;92.59
75555;BME280;66087;53.126;17.960;2023-08-30T04:48:37;99694.28;;;16.16;92.65
75555;BME280;66087;53.126;17.960;2023-08-30T04:51:04;99697.67;;;16.16;92.68
75555;BME280;66087;53.126;17.960;2023-08-30T04:53:31;99692.79;;;16.16;92.68
75555;BME280;66087;53.126;17.960;2023-08-30T04:55:59;99694.59;;;16.17;92.70
75555;BME280;66087;53.126;17.960;2023-08-30T04:58:26;99697.57;;;16.16;92.72
75555;BME280;66087;53.126;17.960;2023-08-30T05:00:56;99698.30;;;16.15;92.73
75555;BME280;66087;53.126;17.960;2023-08-30T05:03:24;99693.45;;;16.14;92.69
75555;BME280;66087;53.126;17.960;2023-08-30T05:05:51;99691.34;;;16.14;92.89
75555;BME280;66087;53.126;17.960;2023-08-30T05:08:18;99695.59;;;16.19;93.04
75555;BME280;66087;53.126;17.960;2023-08-30T05:10:45;99684.79;;;16.20;92.75
75555;BME280;66087;53.126;17.960;2023-08-30T05:13:16;99689.88;;;16.26;92.54
75555;BME280;66087;53.126;17.960;2023-08-30T05:15:42;99691.49;;;16.30;92.35
75555;BME280;66087;53.126;17.960;2023-08-30T05:18:09;99691.39;;;16.32;92.49
75555;BME280;66087;53.126;17.960;2023-08-30T05:20:35;99694.16;;;16.34;92.26
75555;BME280;66087;53.126;17.960;2023-08-30T05:23:03;99703.25;;;16.39;92.26
75555;BME280;66087;53.126;17.960;2023-08-30T05:25:30;99703.33;;;16.44;92.01
75555;BME280;66087;53.126;17.960;2023-08-30T05:27:57;99697.38;;;16.48;91.81
75555;BME280;66087;53.126;17.960;2023-08-30T05:30:24;99697.80;;;16.52;91.89
75555;BME280;66087;53.126;17.960;2023-08-30T05:32:54;99701.34;;;16.55;91.77
75555;BME280;66087;53.126;17.960;2023-08-30T05:35:41;99702.62;;;16.54;91.76
75555;BME280;66087;53.126;17.960;2023-08-30T05:38:19;99698.41;;;16.53;91.70
75555;BME280;66087;53.126;17.960;2023-08-30T05:40:55;99699.04;;;16.54;91.77
75555;BME280;66087;53.126;17.960;2023-08-30T05:43:23;99699.44;;;16.52;91.83
75555;BME280;66087;53.126;17.960;2023-08-30T05:45:50;99700.30;;;16.53;91.90
75555;BME280;66087;53.126;17.960;2023-08-30T05:48:17;99678.10;;;16.42;91.71
75555;BME280;66087;53.126;17.960;2023-08-30T05:50:44;99707.27;;;16.60;91.97
75555;BME280;66087;53.126;17.960;2023-08-30T05:53:11;99709.80;;;16.58;91.70
75555;BME280;66087;53.126;17.960;2023-08-30T05:55:38;99719.05;;;16.67;91.50
75555;BME280;66087;53.126;17.960;2023-08-30T05:58:06;99715.23;;;16.68;91.19
75555;BME280;66087;53.126;17.960;2023-08-30T06:00:33;99707.91;;;16.69;91.21
75555;BME280;66087;53.126;17.960;2023-08-30T06:02:59;99709.19;;;16.73;91.02
75555;BME280;66087;53.126;17.960;2023-08-30T06:05:26;99693.50;;;16.67;91.07
75555;BME280;66087;53.126;17.960;2023-08-30T06:07:56;99709.61;;;16.84;91.07
75555;BME280;66087;53.126;17.960;2023-08-30T06:10:25;99717.49;;;16.92;90.73
75555;BME280;66087;53.126;17.960;2023-08-30T06:12:52;99726.16;;;16.93;90.32
75555;BME280;66087;53.126;17.960;2023-08-30T06:15:18;99722.55;;;16.93;90.34
75555;BME280;66087;53.126;17.960;2023-08-30T06:17:50;99726.88;;;16.96;90.22
75555;BME280;66087;53.126;17.960;2023-08-30T06:20:19;99729.46;;;16.98;90.26
75555;BME280;66087;53.126;17.960;2023-08-30T06:22:48;99730.02;;;17.01;90.18
75555;BME280;66087;53.126;17.960;2023-08-30T06:25:15;99731.88;;;17.07;90.30
75555;BME280;66087;53.126;17.960;2023-08-30T06:27:54;99730.70;;;17.15;90.20
75555;BME280;66087;53.126;17.960;2023-08-30T06:30:21;99728.05;;;17.23;89.70
75555;BME280;66087;53.126;17.960;2023-08-30T06:32:49;99727.91;;;17.31;89.59
75555;BME280;66087;53.126;17.960;2023-08-30T06:35:16;99727.63;;;17.35;89.48
75555;BME280;66087;53.126;17.960;2023-08-30T06:37:43;99713.95;;;17.26;89.56
75555;BME280;66087;53.126;17.960;2023-08-30T06:40:10;99729.41;;;17.38;89.50
75555;BME280;66087;53.126;17.960;2023-08-30T06:42:37;99728.05;;;17.40;89.53
75555;BME280;66087;53.126;17.960;2023-08-30T06:45:05;99724.70;;;17.44;89.40
75555;BME280;66087;53.126;17.960;2023-08-30T06:47:32;99721.38;;;17.49;89.09
75555;BME280;66087;53.126;17.960;2023-08-30T06:50:09;99720.08;;;17.52;89.03
75555;BME280;66087;53.126;17.960;2023-08-30T06:52:43;99717.90;;;17.58;88.77
75555;BME280;66087;53.126;17.960;2023-08-30T06:55:11;99715.84;;;17.57;88.43
75555;BME280;66087;53.126;17.960;2023-08-30T06:57:38;99716.69;;;17.55;88.83
75555;BME280;66087;53.126;17.960;2023-08-30T07:00:07;99718.19;;;17.57;88.70
75555;BME280;66087;53.126;17.960;2023-08-30T07:02:37;99695.61;;;17.44;88.54
75555;BME280;66087;53.126;17.960;2023-08-30T07:05:04;99711.02;;;17.64;88.81
75555;BME280;66087;53.126;17.960;2023-08-30T07:07:32;99712.30;;;17.73;88.62
75555;BME280;66087;53.126;17.960;2023-08-30T07:09:58;99717.27;;;17.81;88.27
75555;BME280;66087;53.126;17.960;2023-08-30T07:12:26;99724.05;;;17.85;88.27
75555;BME280;66087;53.126;17.960;2023-08-30T07:14:53;99727.89;;;17.87;88.07
75555;BME280;66087;53.126;17.960;2023-08-30T07:17:22;99729.55;;;17.84;87.83
75555;BME280;66087;53.126;17.960;2023-08-30T07:19:49;99733.84;;;17.83;87.89
75555;BME280;66087;53.126;17.960;2023-08-30T07:22:18;99733.38;;;17.78;87.70
75555;BME280;66087;53.126;17.960;2023-08-30T07:24:47;99722.08;;;17.64;87.52
75555;BME280;66087;53.126;17.960;2023-08-30T07:27:13;99741.11;;;17.77;87.63
75555;BME280;66087;53.126;17.960;2023-08-30T07:29:40;99745.05;;;17.76;87.51
75555;BME280;66087;53.126;17.960;2023-08-30T07:32:11;99749.33;;;17.78;87.78
75555;BME280;66087;53.126;17.960;2023-08-30T07:34:38;99751.80;;;17.80;87.74
75555;BME280;66087;53.126;17.960;2023-08-30T07:37:04;99735.69;;;17.76;87.61
75555;BME280;66087;53.126;17.960;2023-08-30T07:39:31;99742.78;;;17.86;87.27
75555;BME280;66087;53.126;17.960;2023-08-30T07:41:58;99739.00;;;17.87;87.34
75555;BME280;66087;53.126;17.960;2023-08-30T07:44:25;99741.41;;;17.89;87.57
75555;BME280;66087;53.126;17.960;2023-08-30T07:46:52;99742.54;;;18.02;87.03
75555;BME280;66087;53.126;17.960;2023-08-30T07:49:20;99743.08;;;18.25;86.63
75555;BME280;66087;53.126;17.960;2023-08-30T07:51:47;99748.40;;;18.51;85.05
75555;BME280;66087;53.126;17.960;2023-08-30T07:54:13;99748.66;;;18.70;85.52
75555;BME280;66087;53.126;17.960;2023-08-30T07:56:41;99749.16;;;18.82;85.54
75555;BME280;66087;53.126;17.960;2023-08-30T07:59:08;99753.04;;;18.79;84.86
75555;BME280;66087;53.126;17.960;2023-08-30T08:01:34;99754.21;;;18.70;85.40
75555;BME280;66087;53.126;17.960;2023-08-30T08:04:01;99752.50;;;18.64;85.46
75555;BME280;66087;53.126;17.960;2023-08-30T08:06:28;99734.60;;;18.43;84.79
75555;BME280;66087;53.126;17.960;2023-08-30T08:08:54;99750.15;;;18.49;85.48
75555;BME280;66087;53.126;17.960;2023-08-30T08:11:21;99748.67;;;18.52;85.54
75555;BME280;66087;53.126;17.960;2023-08-30T08:13:49;99755.50;;;18.51;85.33
75555;BME280;66087;53.126;17.960;2023-08-30T08:16:15;99756.97;;;18.50;85.56
75555;BME280;66087;53.126;17.960;2023-08-30T08:18:42;99757.48;;;18.53;85.28
75555;BME280;66087;53.126;17.960;2023-08-30T08:21:29;99759.42;;;18.62;84.62
75555;BME280;66087;53.126;17.960;2023-08-30T08:23:55;99759.70;;;18.69;84.40
75555;BME280;66087;53.126;17.960;2023-08-30T08:26:22;99759.14;;;18.73;84.42
75555;BME280;66087;53.126;17.960;2023-08-30T08:28:49;99759.79;;;18.80;84.05
75555;BME280;66087;53.126;17.960;2023-08-30T08:31:15;99761.02;;;18.86;83.48
75555;BME280;66087;53.126;17.960;2023-08-30T08:33:43;99764.98;;;18.80;83.72
75555;BME280;66087;53.126;17.960;2023-08-30T08:36:10;99755.34;;;18.69;83.79
75555;BME280;66087;53.126;17.960;2023-08-30T08:38:37;99770.75;;;18.76;83.52
75555;BME280;66087;53.126;17.960;2023-08-30T08:41:05;99772.81;;;18.72;83.79
75555;BME280;66087;53.126;17.960;2023-08-30T08:43:33;99777.27;;;18.68;83.20
75555;BME280;66087;53.126;17.960;2023-08-30T08:46:05;99784.49;;;18.60;83.44
75555;BME280;66087;53.126;17.960;2023-08-30T08:48:35;99787.19;;;18.54;83.24
75555;BME280;66087;53.126;17.960;2023-08-30T08:51:06;99789.30;;;18.50;83.40
75555;BME280;66087;53.126;17.960;2023-08-30T08:53:33;99788.07;;;18.53;83.51
75555;BME280;66087;53.126;17.960;2023-08-30T08:56:02;99794.77;;;18.61;82.91
75555;BME280;66087;53.126;17.960;2023-08-30T08:58:29;99778.98;;;18.74;82.41
75555;BME280;66087;53.126;17.960;2023-08-30T09:00:56;99796.27;;;19.09;81.44
75555;BME280;66087;53.126;17.960;2023-08-30T09:03:24;99790.38;;;19.35;81.11
75555;BME280;66087;53.126;17.960;2023-08-30T09:05:51;99786.40;;;19.56;80.41
75555;BME280;66087;53.126;17.960;2023-08-30T09:08:19;99785.55;;;19.70;79.63
75555;BME280;66087;53.126;17.960;2023-08-30T09:10:47;99789.78;;;19.80;80.14
75555;BME280;66087;53.126;17.960;2023-08-30T09:13:17;99781.87;;;19.90;79.85
75555;BME280;66087;53.126;17.960;2023-08-30T09:15:43;99778.16;;;19.92;79.41
75555;BME280;66087;53.126;17.960;2023-08-30T09:18:18;99774.92;;;19.88;79.85
75555;BME280;66087;53.126;17.960;2023-08-30T09:20:45;99778.36;;;19.90;79.94
75555;BME280;66087;53.126;17.960;2023-08-30T09:23:20;99781.05;;;19.89;79.85
75555;BME280;66087;53.126;17.960;2023-08-30T09:25:54;99781.02;;;19.83;79.79
75555;BME280;66087;53.126;17.960;2023-08-30T09:28:21;99772.13;;;19.80;79.68
75555;BME280;66087;53.126;17.960;2023-08-30T09:30:49;99783.70;;;19.80;79.67
75555;BME280;66087;53.126;17.960;2023-08-30T09:33:22;99789.58;;;19.79;79.38
75555;BME280;66087;53.126;17.960;2023-08-30T09:35:49;99789.15;;;19.76;79.05
75555;BME280;66087;53.126;17.960;2023-08-30T09:38:18;99793.85;;;19.73;79.16
75555;BME280;66087;53.126;17.960;2023-08-30T09:40:47;99793.01;;;19.67;78.84
75555;BME280;66087;53.126;17.960;2023-08-30T09:43:19;99789.84;;;19.58;78.85
75555;BME280;66087;53.126;17.960;2023-08-30T09:45:48;99792.16;;;19.43;78.78
75555;BME280;66087;53.126;17.960;2023-08-30T09:48:15;99794.39;;;19.28;79.53
75555;BME280;66087;53.126;17.960;2023-08-30T09:50:46;99796.19;;;19.17;79.67
75555;BME280;66087;53.126;17.960;2023-08-30T09:53:17;99795.02;;;19.04;79.65
75555;BME280;66087;53.126;17.960;2023-08-30T09:55:44;99795.05;;;18.97;80.18
75555;BME280;66087;53.126;17.960;2023-08-30T09:58:13;99792.80;;;18.93;80.15
75555;BME280;66087;53.126;17.960;2023-08-30T10:00:42;99793.06;;;18.90;79.88
75555;BME280;66087;53.126;17.960;2023-08-30T10:03:09;99791.77;;;18.84;79.87
75555;BME280;66087;53.126;17.960;2023-08-30T10:05:37;99787.81;;;18.80;79.87
75555;BME280;66087;53.126;17.960;2023-08-30T10:08:07;99786.27;;;18.76;80.10
75555;BME280;66087;53.126;17.960;2023-08-30T10:10:34;99786.27;;;18.72;80.04
75555;BME280;66087;53.126;17.960;2023-08-30T10:13:03;99785.62;;;18.72;80.19
75555;BME280;66087;53.126;17.960;2023-08-30T10:15:35;99790.61;;;18.74;80.27
75555;BME280;66087;53.126;17.960;2023-08-30T10:18:04;99787.77;;;18.72;80.12
75555;BME280;66087;53.126;17.960;2023-08-30T10:20:36;99791.58;;;18.61;79.99
75555;BME280;66087;53.126;17.960;2023-08-30T10:23:05;99792.13;;;18.53;80.49
75555;BME280;66087;53.126;17.960;2023-08-30T10:25:34;99791.85;;;18.51;80.61
75555;BME280;66087;53.126;17.960;2023-08-30T10:28:01;99792.16;;;18.49;80.82
75555;BME280;66087;53.126;17.960;2023-08-30T10:30:31;99792.11;;;18.46;80.73
75555;BME280;66087;53.126;17.960;2023-08-30T10:32:58;99792.20;;;18.45;80.75
75555;BME280;66087;53.126;17.960;2023-08-30T10:35:25;99791.86;;;18.42;80.82
75555;BME280;66087;53.126;17.960;2023-08-30T10:37:56;99786.64;;;18.44;80.91
75555;BME280;66087;53.126;17.960;2023-08-30T10:40:24;99784.48;;;18.52;81.16
75555;BME280;66087;53.126;17.960;2023-08-30T10:43:05;99785.08;;;18.59;81.20
75555;BME280;66087;53.126;17.960;2023-08-30T10:45:32;99784.16;;;18.62;81.27
75555;BME280;66087;53.126;17.960;2023-08-30T10:47:59;99782.48;;;18.67;80.97
75555;BME280;66087;53.126;17.960;2023-08-30T10:50:28;99787.35;;;18.69;81.11
75555;BME280;66087;53.126;17.960;2023-08-30T10:52:56;99784.50;;;18.70;81.17
75555;BME280;66087;53.126;17.960;2023-08-30T10:55:24;99781.27;;;18.78;81.51
75555;BME280;66087;53.126;17.960;2023-08-30T10:57:59;99781.50;;;18.80;81.34
75555;BME280;66087;53.126;17.960;2023-08-30T11:00:28;99780.98;;;18.72;81.46
75555;BME280;66087;53.126;17.960;2023-08-30T11:02:57;99781.27;;;18.71;81.71
75555;BME280;66087;53.126;17.960;2023-08-30T11:05:26;99780.29;;;18.78;81.60
75555;BME280;66087;53.126;17.960;2023-08-30T11:07:54;99778.79;;;18.78;81.52
75555;BME280;66087;53.126;17.960;2023-08-30T11:10:21;99782.38;;;18.78;81.52
75555;BME280;66087;53.126;17.960;2023-08-30T11:12:49;99783.45;;;18.79;81.49
75555;BME280;66087;53.126;17.960;2023-08-30T11:15:16;99783.16;;;18.86;81.48
75555;BME280;66087;53.126;17.960;2023-08-30T11:17:43;99785.64;;;18.89;81.27
75555;BME280;66087;53.126;17.960;2023-08-30T11:20:14;99785.13;;;18.87;81.05
75555;BME280;66087;53.126;17.960;2023-08-30T11:22:47;99784.02;;;18.83;81.13
75555;BME280;66087;53.126;17.960;2023-08-30T11:25:16;99781.98;;;18.78;81.21
75555;BME280;66087;53.126;17.960;2023-08-30T11:27:43;99785.27;;;18.71;81.42
75555;BME280;66087;53.126;17.960;2023-08-30T11:30:14;99782.44;;;18.68;81.67
75555;BME280;66087;53.126;17.960;2023-08-30T11:33:02;99781.34;;;18.73;81.89
75555;BME280;66087;53.126;17.960;2023-08-30T11:35:32;99782.73;;;18.78;81.48
75555;BME280;66087;53.126;17.960;2023-08-30T11:37:59;99784.80;;;18.80;81.61
75555;BME280;66087;53.126;17.960;2023-08-30T11:40:25;99783.56;;;18.80;81.74
75555;BME280;66087;53.126;17.960;2023-08-30T11:42:52;99787.50;;;18.89;81.84
75555;BME280;66087;53.126;17.960;2023-08-30T11:45:19;99783.04;;;18.93;81.69
75555;BME280;66087;53.126;17.960;2023-08-30T11:47:45;99778.38;;;18.93;81.59
75555;BME280;66087;53.126;17.960;2023-08-30T11:50:14;99779.63;;;18.97;81.34
75555;BME280;66087;53.126;17.960;2023-08-30T11:52:41;99779.84;;;19.04;81.43
75555;BME280;66087;53.126;17.960;2023-08-30T11:55:08;99778.09;;;19.04;81.52
75555;BME280;66087;53.126;17.960;2023-08-30T11:57:36;99780.09;;;19.09;81.55
75555;BME280;66087;53.126;17.960;2023-08-30T12:00:08;99777.52;;;19.22;81.14
75555;BME280;66087;53.126;17.960;2023-08-30T12:02:40;99782.59;;;19.37;80.67
75555;BME280;66087;53.126;17.960;2023-08-30T12:05:11;99783.86;;;19.56;80.75
75555;BME280;66087;53.126;17.960;2023-08-30T12:07:38;99784.91;;;19.64;80.54
75555;BME280;66087;53.126;17.960;2023-08-30T12:10:09;99786.15;;;19.61;80.26
75555;BME280;66087;53.126;17.960;2023-08-30T12:12:36;99777.84;;;19.65;80.15
75555;BME280;66087;53.126;17.960;2023-08-30T12:15:11;99780.02;;;19.67;79.81
75555;BME280;66087;53.126;17.960;2023-08-30T12:17:43;99771.58;;;19.64;79.79
75555;BME280;66087;53.126;17.960;2023-08-30T12:20:17;99776.35;;;19.60;79.76
75555;BME280;66087;53.126;17.960;2023-08-30T12:22:46;99776.79;;;19.56;79.85
75555;BME280;66087;53.126;17.960;2023-08-30T12:25:22;99775.94;;;19.57;79.38
75555;BME280;66087;53.126;17.960;2023-08-30T12:27:50;99775.30;;;19.52;79.53
75555;BME280;66087;53.126;17.960;2023-08-30T12:30:18;99782.71;;;19.45;79.71
75555;BME280;66087;53.126;17.960;2023-08-30T12:32:47;99778.15;;;19.35;79.83
75555;BME280;66087;53.126;17.960;2023-08-30T12:35:15;99781.83;;;19.30;79.91
75555;BME280;66087;53.126;17.960;2023-08-30T12:37:45;99779.97;;;19.25;80.02
75555;BME280;66087;53.126;17.960;2023-08-30T12:40:13;99779.52;;;19.19;80.21
75555;BME280;66087;53.126;17.960;2023-08-30T12:42:40;99782.27;;;19.13;80.36
75555;BME280;66087;53.126;17.960;2023-08-30T12:45:07;99786.48;;;19.07;80.48
75555;BME280;66087;53.126;17.960;2023-08-30T12:47:34;99782.56;;;19.01;80.49
75555;BME280;66087;53.126;17.960;2023-08-30T12:50:00;99786.23;;;19.03;80.50
75555;BME280;66087;53.126;17.960;2023-08-30T12:52:28;99785.49;;;19.09;80.39
75555;BME280;66087;53.126;17.960;2023-08-30T12:54:54;99788.23;;;19.12;80.39
75555;BME280;66087;53.126;17.960;2023-08-30T12:57:21;99785.47;;;19.12;80.11